sensor_id;sensor_type;location;lat;lon;timestamp;P1;durP1;ratioP1;P2;durP2;ratioP2
11263;SDS011;5689;48.798;9.070;2023-08-07T00:00:03;0.20;;;0.20;;
11263;SDS011;5689;48.798;9.070;2023-08-07T00:02:31;0.20;;;0.20;;
11263;SDS011;5689;48.798;9.070;2023-08-07T00:04:59;0.30;;;0.30;;
11263;SDS011;5689;48.798;9.070;2023-08-07T00:07:27;0.30;;;0.30;;
11263;SDS011;5689;48.798;9.070;2023-08-07T00:09:55;0.30;;;0.30;;
11263;SDS011;5689;48.798;9.070;2023-08-07T00:12:23;0.30;;;0.30;;
11263;SDS011;5689;48.798;9.070;2023-08-07T00:14:51;0.20;;;0.20;;
11263;SDS011;5689;48.798;9.070;2023-08-07T00:17:20;0.20;;;0.20;;
11263;SDS011;5689;48.798;9.070;2023-08-07T00:19:48;0.20;;;0.20;;
11263;SDS011;5689;48.798;9.070;2023-08-07T00:22:16;0.20;;;0.20;;
11263;SDS011;5689;48.798;9.070;2023-08-07T00:24:44;0.20;;;0.20;;
11263;SDS011;5689;48.798;9.070;2023-08-07T00:27:12;0.30;;;0.30;;
11263;SDS011;5689;48.798;9.070;2023-08-07T00:29:40;0.30;;;0.30;;
11263;SDS011;5689;48.798;9.070;2023-08-07T00:32:08;0.30;;;0.30;;
11263;SDS011;5689;48.798;9.070;2023-08-07T00:34:40;0.30;;;0.30;;
11263;SDS011;5689;48.798;9.070;2023-08-07T00:37:08;0.20;;;0.20;;
11263;SDS011;5689;48.798;9.070;2023-08-07T00:39:36;0.30;;;0.30;;
11263;SDS011;5689;48.798;9.070;2023-08-07T00:42:05;0.10;;;0.10;;
11263;SDS011;5689;48.798;9.070;2023-08-07T00:44:34;0.20;;;0.20;;
11263;SDS011;5689;48.798;9.070;2023-08-07T00:47:02;0.30;;;0.30;;
11263;SDS011;5689;48.798;9.070;2023-08-07T00:49:30;0.27;;;0.27;;
11263;SDS011;5689;48.798;9.070;2023-08-07T00:52:00;0.30;;;0.30;;
11263;SDS011;5689;48.798;9.070;2023-08-07T00:54:28;0.20;;;0.20;;
11263;SDS011;5689;48.798;9.070;2023-08-07T00:56:56;0.30;;;0.30;;
11263;SDS011;5689;48.798;9.070;2023-08-07T00:59:30;0.20;;;0.20;;
11263;SDS011;5689;48.798;9.070;2023-08-07T01:01:58;0.32;;;0.32;;
11263;SDS011;5689;48.798;9.070;2023-08-07T01:04:26;0.30;;;0.30;;
11263;SDS011;5689;48.798;9.070;2023-08-07T01:06:55;0.20;;;0.20;;
11263;SDS011;5689;48.798;9.070;2023-08-07T01:09:26;0.22;;;0.22;;
11263;SDS011;5689;48.798;9.070;2023-08-07T01:11:55;0.20;;;0.20;;
11263;SDS011;5689;48.798;9.070;2023-08-07T01:14:28;0.30;;;0.30;;
11263;SDS011;5689;48.798;9.070;2023-08-07T01:17:05;0.27;;;0.27;;
11263;SDS011;5689;48.798;9.070;2023-08-07T01:19:36;0.23;;;0.23;;
11263;SDS011;5689;48.798;9.070;2023-08-07T01:22:07;0.20;;;0.20;;
11263;SDS011;5689;48.798;9.070;2023-08-07T01:24:37;0.20;;;0.20;;
11263;SDS011;5689;48.798;9.070;2023-08-07T01:27:10;0.28;;;0.28;;
11263;SDS011;5689;48.798;9.070;2023-08-07T01:29:44;0.20;;;0.20;;
11263;SDS011;5689;48.798;9.070;2023-08-07T01:32:22;0.20;;;0.20;;
11263;SDS011;5689;48.798;9.070;2023-08-07T01:34:58;0.20;;;0.20;;
11263;SDS011;5689;48.798;9.070;2023-08-07T01:37:29;0.20;;;0.20;;
11263;SDS011;5689;48.798;9.070;2023-08-07T01:39:59;0.20;;;0.20;;
11263;SDS011;5689;48.798;9.070;2023-08-07T01:42:30;0.30;;;0.30;;
11263;SDS011;5689;48.798;9.070;2023-08-07T01:44:58;0.20;;;0.20;;
11263;SDS011;5689;48.798;9.070;2023-08-07T01:47:26;0.20;;;0.20;;
11263;SDS011;5689;48.798;9.070;2023-08-07T01:49:54;0.20;;;0.20;;
11263;SDS011;5689;48.798;9.070;2023-08-07T01:52:22;0.25;;;0.25;;
11263;SDS011;5689;48.798;9.070;2023-08-07T01:54:52;0.20;;;0.20;;
11263;SDS011;5689;48.798;9.070;2023-08-07T01:57:20;0.25;;;0.25;;
11263;SDS011;5689;48.798;9.070;2023-08-07T01:59:48;0.20;;;0.20;;
11263;SDS011;5689;48.798;9.070;2023-08-07T02:02:16;0.20;;;0.20;;
11263;SDS011;5689;48.798;9.070;2023-08-07T02:04:44;0.20;;;0.20;;
11263;SDS011;5689;48.798;9.070;2023-08-07T02:07:11;0.30;;;0.30;;
11263;SDS011;5689;48.798;9.070;2023-08-07T02:09:39;0.20;;;0.20;;
11263;SDS011;5689;48.798;9.070;2023-08-07T02:12:09;0.20;;;0.20;;
11263;SDS011;5689;48.798;9.070;2023-08-07T02:14:37;0.20;;;0.20;;
11263;SDS011;5689;48.798;9.070;2023-08-07T02:17:05;0.20;;;0.20;;
11263;SDS011;5689;48.798;9.070;2023-08-07T02:19:34;0.20;;;0.20;;
11263;SDS011;5689;48.798;9.070;2023-08-07T02:22:02;0.20;;;0.20;;
11263;SDS011;5689;48.798;9.070;2023-08-07T02:24:30;0.20;;;0.20;;
11263;SDS011;5689;48.798;9.070;2023-08-07T02:26:58;0.20;;;0.20;;
11263;SDS011;5689;48.798;9.070;2023-08-07T02:29:27;0.20;;;0.20;;
11263;SDS011;5689;48.798;9.070;2023-08-07T02:31:56;0.20;;;0.20;;
11263;SDS011;5689;48.798;9.070;2023-08-07T02:34:24;0.20;;;0.20;;
11263;SDS011;5689;48.798;9.070;2023-08-07T02:36:52;0.30;;;0.30;;
11263;SDS011;5689;48.798;9.070;2023-08-07T02:39:20;0.20;;;0.20;;
11263;SDS011;5689;48.798;9.070;2023-08-07T02:41:48;0.20;;;0.20;;
11263;SDS011;5689;48.798;9.070;2023-08-07T02:44:16;0.30;;;0.30;;
11263;SDS011;5689;48.798;9.070;2023-08-07T02:46:46;0.20;;;0.20;;
11263;SDS011;5689;48.798;9.070;2023-08-07T02:49:14;0.20;;;0.20;;
11263;SDS011;5689;48.798;9.070;2023-08-07T02:51:42;0.20;;;0.20;;
11263;SDS011;5689;48.798;9.070;2023-08-07T02:54:09;0.30;;;0.30;;
11263;SDS011;5689;48.798;9.070;2023-08-07T02:56:37;0.20;;;0.20;;
11263;SDS011;5689;48.798;9.070;2023-08-07T02:59:05;0.28;;;0.28;;
11263;SDS011;5689;48.798;9.070;2023-08-07T03:01:33;0.20;;;0.20;;
11263;SDS011;5689;48.798;9.070;2023-08-07T03:04:03;0.20;;;0.20;;
11263;SDS011;5689;48.798;9.070;2023-08-07T03:06:31;0.20;;;0.20;;
11263;SDS011;5689;48.798;9.070;2023-08-07T03:08:59;0.27;;;0.27;;
11263;SDS011;5689;48.798;9.070;2023-08-07T03:11:27;0.30;;;0.30;;
11263;SDS011;5689;48.798;9.070;2023-08-07T03:13:55;0.30;;;0.30;;
11263;SDS011;5689;48.798;9.070;2023-08-07T03:16:23;0.20;;;0.20;;
11263;SDS011;5689;48.798;9.070;2023-08-07T03:18:51;0.30;;;0.30;;
11263;SDS011;5689;48.798;9.070;2023-08-07T03:21:20;0.20;;;0.20;;
11263;SDS011;5689;48.798;9.070;2023-08-07T03:23:48;0.20;;;0.20;;
11263;SDS011;5689;48.798;9.070;2023-08-07T03:26:16;0.30;;;0.30;;
11263;SDS011;5689;48.798;9.070;2023-08-07T03:28:46;0.30;;;0.30;;
11263;SDS011;5689;48.798;9.070;2023-08-07T03:31:14;0.20;;;0.20;;
11263;SDS011;5689;48.798;9.070;2023-08-07T03:33:43;0.30;;;0.30;;
11263;SDS011;5689;48.798;9.070;2023-08-07T03:36:12;0.30;;;0.30;;
11263;SDS011;5689;48.798;9.070;2023-08-07T03:38:42;0.20;;;0.20;;
11263;SDS011;5689;48.798;9.070;2023-08-07T03:41:10;0.30;;;0.30;;
11263;SDS011;5689;48.798;9.070;2023-08-07T03:43:40;0.30;;;0.30;;
11263;SDS011;5689;48.798;9.070;2023-08-07T03:46:09;0.20;;;0.20;;
11263;SDS011;5689;48.798;9.070;2023-08-07T03:48:37;0.30;;;0.30;;
11263;SDS011;5689;48.798;9.070;2023-08-07T03:51:07;0.20;;;0.20;;
11263;SDS011;5689;48.798;9.070;2023-08-07T03:53:44;0.20;;;0.20;;
11263;SDS011;5689;48.798;9.070;2023-08-07T03:56:12;0.20;;;0.20;;
11263;SDS011;5689;48.798;9.070;2023-08-07T03:58:40;0.30;;;0.30;;
11263;SDS011;5689;48.798;9.070;2023-08-07T04:01:08;0.30;;;0.30;;
11263;SDS011;5689;48.798;9.070;2023-08-07T04:03:38;0.27;;;0.27;;
11263;SDS011;5689;48.798;9.070;2023-08-07T04:06:06;0.20;;;0.20;;
11263;SDS011;5689;48.798;9.070;2023-08-07T04:08:34;0.23;;;0.23;;
11263;SDS011;5689;48.798;9.070;2023-08-07T04:11:03;0.20;;;0.20;;
11263;SDS011;5689;48.798;9.070;2023-08-07T04:13:33;0.30;;;0.30;;
11263;SDS011;5689;48.798;9.070;2023-08-07T04:16:01;0.20;;;0.20;;
11263;SDS011;5689;48.798;9.070;2023-08-07T04:18:30;0.10;;;0.10;;
11263;SDS011;5689;48.798;9.070;2023-08-07T04:21:00;0.10;;;0.10;;
11263;SDS011;5689;48.798;9.070;2023-08-07T04:23:30;0.10;;;0.10;;
11263;SDS011;5689;48.798;9.070;2023-08-07T04:25:58;0.10;;;0.10;;
11263;SDS011;5689;48.798;9.070;2023-08-07T04:28:28;0.10;;;0.10;;
11263;SDS011;5689;48.798;9.070;2023-08-07T04:30:56;0.10;;;0.10;;
11263;SDS011;5689;48.798;9.070;2023-08-07T04:33:24;0.10;;;0.10;;
11263;SDS011;5689;48.798;9.070;2023-08-07T04:35:52;0.10;;;0.10;;
11263;SDS011;5689;48.798;9.070;2023-08-07T04:38:20;0.10;;;0.10;;
11263;SDS011;5689;48.798;9.070;2023-08-07T04:40:49;0.10;;;0.10;;
11263;SDS011;5689;48.798;9.070;2023-08-07T04:43:18;0.10;;;0.10;;
11263;SDS011;5689;48.798;9.070;2023-08-07T04:45:48;0.10;;;0.10;;
11263;SDS011;5689;48.798;9.070;2023-08-07T04:48:16;0.10;;;0.10;;
11263;SDS011;5689;48.798;9.070;2023-08-07T04:50:47;0.10;;;0.10;;
11263;SDS011;5689;48.798;9.070;2023-08-07T04:53:14;0.10;;;0.10;;
11263;SDS011;5689;48.798;9.070;2023-08-07T04:55:43;0.10;;;0.10;;
11263;SDS011;5689;48.798;9.070;2023-08-07T04:58:11;0.10;;;0.10;;
11263;SDS011;5689;48.798;9.070;2023-08-07T05:00:39;0.10;;;0.10;;
11263;SDS011;5689;48.798;9.070;2023-08-07T05:03:08;0.10;;;0.10;;
11263;SDS011;5689;48.798;9.070;2023-08-07T05:05:36;0.10;;;0.10;;
11263;SDS011;5689;48.798;9.070;2023-08-07T05:08:04;0.10;;;0.10;;
11263;SDS011;5689;48.798;9.070;2023-08-07T05:10:32;0.10;;;0.10;;
11263;SDS011;5689;48.798;9.070;2023-08-07T05:13:00;0.10;;;0.10;;
11263;SDS011;5689;48.798;9.070;2023-08-07T05:15:29;0.10;;;0.10;;
11263;SDS011;5689;48.798;9.070;2023-08-07T05:17:57;0.10;;;0.10;;
11263;SDS011;5689;48.798;9.070;2023-08-07T05:20:26;0.10;;;0.10;;
11263;SDS011;5689;48.798;9.070;2023-08-07T05:22:54;0.10;;;0.10;;
11263;SDS011;5689;48.798;9.070;2023-08-07T05:25:23;0.10;;;0.10;;
11263;SDS011;5689;48.798;9.070;2023-08-07T05:27:51;0.10;;;0.10;;
11263;SDS011;5689;48.798;9.070;2023-08-07T05:30:19;0.00;;;0.00;;
11263;SDS011;5689;48.798;9.070;2023-08-07T05:32:47;0.10;;;0.10;;
11263;SDS011;5689;48.798;9.070;2023-08-07T05:35:15;0.10;;;0.10;;
11263;SDS011;5689;48.798;9.070;2023-08-07T05:37:44;0.10;;;0.10;;
11263;SDS011;5689;48.798;9.070;2023-08-07T05:40:12;0.10;;;0.10;;
11263;SDS011;5689;48.798;9.070;2023-08-07T05:42:40;0.07;;;0.07;;
11263;SDS011;5689;48.798;9.070;2023-08-07T05:45:09;0.10;;;0.10;;
11263;SDS011;5689;48.798;9.070;2023-08-07T05:47:37;0.10;;;0.10;;
11263;SDS011;5689;48.798;9.070;2023-08-07T05:50:05;0.10;;;0.10;;
11263;SDS011;5689;48.798;9.070;2023-08-07T05:52:34;0.10;;;0.10;;
11263;SDS011;5689;48.798;9.070;2023-08-07T05:55:04;0.10;;;0.10;;
11263;SDS011;5689;48.798;9.070;2023-08-07T05:57:32;0.10;;;0.10;;
11263;SDS011;5689;48.798;9.070;2023-08-07T06:00:01;0.10;;;0.10;;
11263;SDS011;5689;48.798;9.070;2023-08-07T06:02:37;0.10;;;0.10;;
11263;SDS011;5689;48.798;9.070;2023-08-07T06:05:05;0.05;;;0.05;;
11263;SDS011;5689;48.798;9.070;2023-08-07T06:07:35;0.10;;;0.10;;
11263;SDS011;5689;48.798;9.070;2023-08-07T06:10:05;0.10;;;0.10;;
11263;SDS011;5689;48.798;9.070;2023-08-07T06:12:34;0.00;;;0.00;;
11263;SDS011;5689;48.798;9.070;2023-08-07T06:15:02;0.10;;;0.10;;
11263;SDS011;5689;48.798;9.070;2023-08-07T06:17:30;0.10;;;0.10;;
11263;SDS011;5689;48.798;9.070;2023-08-07T06:19:58;0.10;;;0.10;;
11263;SDS011;5689;48.798;9.070;2023-08-07T06:22:26;0.10;;;0.10;;
11263;SDS011;5689;48.798;9.070;2023-08-07T06:24:54;0.10;;;0.10;;
11263;SDS011;5689;48.798;9.070;2023-08-07T06:27:23;0.10;;;0.10;;
11263;SDS011;5689;48.798;9.070;2023-08-07T06:29:51;0.10;;;0.10;;
11263;SDS011;5689;48.798;9.070;2023-08-07T06:32:19;0.10;;;0.10;;
11263;SDS011;5689;48.798;9.070;2023-08-07T06:34:47;0.10;;;0.10;;
11263;SDS011;5689;48.798;9.070;2023-08-07T06:37:15;0.10;;;0.10;;
11263;SDS011;5689;48.798;9.070;2023-08-07T06:39:43;0.10;;;0.10;;
11263;SDS011;5689;48.798;9.070;2023-08-07T06:42:13;0.10;;;0.10;;
11263;SDS011;5689;48.798;9.070;2023-08-07T06:44:44;0.10;;;0.10;;
11263;SDS011;5689;48.798;9.070;2023-08-07T06:47:12;0.10;;;0.10;;
11263;SDS011;5689;48.798;9.070;2023-08-07T06:49:40;0.10;;;0.10;;
11263;SDS011;5689;48.798;9.070;2023-08-07T06:52:08;0.10;;;0.10;;
11263;SDS011;5689;48.798;9.070;2023-08-07T06:54:36;0.10;;;0.10;;
11263;SDS011;5689;48.798;9.070;2023-08-07T06:57:04;0.10;;;0.10;;
11263;SDS011;5689;48.798;9.070;2023-08-07T06:59:33;0.10;;;0.10;;
11263;SDS011;5689;48.798;9.070;2023-08-07T07:02:02;0.10;;;0.10;;
11263;SDS011;5689;48.798;9.070;2023-08-07T07:04:30;0.10;;;0.10;;
11263;SDS011;5689;48.798;9.070;2023-08-07T07:06:59;0.00;;;0.00;;
11263;SDS011;5689;48.798;9.070;2023-08-07T07:09:27;0.10;;;0.10;;
11263;SDS011;5689;48.798;9.070;2023-08-07T07:11:55;0.10;;;0.10;;
11263;SDS011;5689;48.798;9.070;2023-08-07T07:14:23;0.10;;;0.10;;
11263;SDS011;5689;48.798;9.070;2023-08-07T07:16:51;0.10;;;0.10;;
11263;SDS011;5689;48.798;9.070;2023-08-07T07:19:20;0.10;;;0.10;;
11263;SDS011;5689;48.798;9.070;2023-08-07T07:21:48;0.10;;;0.10;;
11263;SDS011;5689;48.798;9.070;2023-08-07T07:24:16;0.10;;;0.10;;
11263;SDS011;5689;48.798;9.070;2023-08-07T07:26:44;0.20;;;0.20;;
11263;SDS011;5689;48.798;9.070;2023-08-07T07:29:12;0.20;;;0.20;;
11263;SDS011;5689;48.798;9.070;2023-08-07T07:31:40;0.20;;;0.20;;
11263;SDS011;5689;48.798;9.070;2023-08-07T07:34:08;0.20;;;0.20;;
11263;SDS011;5689;48.798;9.070;2023-08-07T07:36:37;0.20;;;0.20;;
11263;SDS011;5689;48.798;9.070;2023-08-07T07:39:05;0.20;;;0.20;;
11263;SDS011;5689;48.798;9.070;2023-08-07T07:41:33;0.20;;;0.20;;
11263;SDS011;5689;48.798;9.070;2023-08-07T07:44:01;0.30;;;0.30;;
11263;SDS011;5689;48.798;9.070;2023-08-07T07:46:29;0.10;;;0.10;;
11263;SDS011;5689;48.798;9.070;2023-08-07T07:48:58;0.13;;;0.13;;
11263;SDS011;5689;48.798;9.070;2023-08-07T07:51:27;0.20;;;0.20;;
11263;SDS011;5689;48.798;9.070;2023-08-07T07:53:56;0.20;;;0.20;;
11263;SDS011;5689;48.798;9.070;2023-08-07T07:56:37;0.20;;;0.20;;
11263;SDS011;5689;48.798;9.070;2023-08-07T07:59:05;0.10;;;0.10;;
11263;SDS011;5689;48.798;9.070;2023-08-07T08:01:34;0.10;;;0.10;;
11263;SDS011;5689;48.798;9.070;2023-08-07T08:04:02;0.20;;;0.20;;
11263;SDS011;5689;48.798;9.070;2023-08-07T08:06:30;0.20;;;0.20;;
11263;SDS011;5689;48.798;9.070;2023-08-07T08:09:00;0.17;;;0.17;;
11263;SDS011;5689;48.798;9.070;2023-08-07T08:11:30;0.20;;;0.20;;
11263;SDS011;5689;48.798;9.070;2023-08-07T08:13:58;0.20;;;0.20;;
11263;SDS011;5689;48.798;9.070;2023-08-07T08:16:26;0.10;;;0.10;;
11263;SDS011;5689;48.798;9.070;2023-08-07T08:18:54;0.20;;;0.20;;
11263;SDS011;5689;48.798;9.070;2023-08-07T08:21:22;0.17;;;0.17;;
11263;SDS011;5689;48.798;9.070;2023-08-07T08:23:51;0.20;;;0.20;;
11263;SDS011;5689;48.798;9.070;2023-08-07T08:26:20;0.20;;;0.20;;
11263;SDS011;5689;48.798;9.070;2023-08-07T08:28:48;0.20;;;0.20;;
11263;SDS011;5689;48.798;9.070;2023-08-07T08:31:16;0.28;;;0.28;;
11263;SDS011;5689;48.798;9.070;2023-08-07T08:33:44;0.20;;;0.20;;
11263;SDS011;5689;48.798;9.070;2023-08-07T08:36:12;0.20;;;0.20;;
11263;SDS011;5689;48.798;9.070;2023-08-07T08:38:40;0.20;;;0.20;;
11263;SDS011;5689;48.798;9.070;2023-08-07T08:41:08;0.20;;;0.20;;
11263;SDS011;5689;48.798;9.070;2023-08-07T08:43:38;0.20;;;0.20;;
11263;SDS011;5689;48.798;9.070;2023-08-07T08:46:10;0.10;;;0.10;;
11263;SDS011;5689;48.798;9.070;2023-08-07T08:48:38;0.20;;;0.20;;
11263;SDS011;5689;48.798;9.070;2023-08-07T08:51:07;0.10;;;0.10;;
11263;SDS011;5689;48.798;9.070;2023-08-07T08:53:37;0.10;;;0.10;;
11263;SDS011;5689;48.798;9.070;2023-08-07T08:56:06;0.20;;;0.20;;
11263;SDS011;5689;48.798;9.070;2023-08-07T08:58:34;0.10;;;0.10;;
11263;SDS011;5689;48.798;9.070;2023-08-07T09:01:04;0.10;;;0.10;;
11263;SDS011;5689;48.798;9.070;2023-08-07T09:03:33;0.10;;;0.10;;
11263;SDS011;5689;48.798;9.070;2023-08-07T09:06:02;0.20;;;0.20;;
11263;SDS011;5689;48.798;9.070;2023-08-07T09:08:32;0.10;;;0.10;;
11263;SDS011;5689;48.798;9.070;2023-08-07T09:11:02;0.20;;;0.20;;
11263;SDS011;5689;48.798;9.070;2023-08-07T09:13:31;0.20;;;0.20;;
11263;SDS011;5689;48.798;9.070;2023-08-07T09:16:05;0.10;;;0.10;;
11263;SDS011;5689;48.798;9.070;2023-08-07T09:18:36;0.13;;;0.13;;
11263;SDS011;5689;48.798;9.070;2023-08-07T09:21:04;0.20;;;0.20;;
11263;SDS011;5689;48.798;9.070;2023-08-07T09:23:32;0.15;;;0.15;;
11263;SDS011;5689;48.798;9.070;2023-08-07T09:26:00;0.10;;;0.10;;
11263;SDS011;5689;48.798;9.070;2023-08-07T09:28:29;0.20;;;0.20;;
11263;SDS011;5689;48.798;9.070;2023-08-07T09:30:57;0.20;;;0.20;;
11263;SDS011;5689;48.798;9.070;2023-08-07T09:33:29;0.20;;;0.20;;
11263;SDS011;5689;48.798;9.070;2023-08-07T09:35:57;0.15;;;0.15;;
11263;SDS011;5689;48.798;9.070;2023-08-07T09:38:27;0.10;;;0.10;;
11263;SDS011;5689;48.798;9.070;2023-08-07T09:40:57;0.20;;;0.20;;
11263;SDS011;5689;48.798;9.070;2023-08-07T09:43:25;0.20;;;0.20;;
11263;SDS011;5689;48.798;9.070;2023-08-07T09:45:59;0.20;;;0.20;;
11263;SDS011;5689;48.798;9.070;2023-08-07T09:48:31;0.20;;;0.20;;
11263;SDS011;5689;48.798;9.070;2023-08-07T09:51:00;0.20;;;0.20;;
11263;SDS011;5689;48.798;9.070;2023-08-07T09:53:29;0.20;;;0.20;;
11263;SDS011;5689;48.798;9.070;2023-08-07T09:55:58;0.20;;;0.20;;
11263;SDS011;5689;48.798;9.070;2023-08-07T09:58:26;0.10;;;0.10;;
11263;SDS011;5689;48.798;9.070;2023-08-07T10:00:55;0.20;;;0.20;;
11263;SDS011;5689;48.798;9.070;2023-08-07T10:03:25;0.20;;;0.20;;
11263;SDS011;5689;48.798;9.070;2023-08-07T10:05:55;0.10;;;0.10;;
11263;SDS011;5689;48.798;9.070;2023-08-07T10:08:24;0.15;;;0.15;;
11263;SDS011;5689;48.798;9.070;2023-08-07T10:10:52;0.30;;;0.30;;
11263;SDS011;5689;48.798;9.070;2023-08-07T10:13:21;0.20;;;0.20;;
11263;SDS011;5689;48.798;9.070;2023-08-07T10:15:53;0.10;;;0.10;;
11263;SDS011;5689;48.798;9.070;2023-08-07T10:18:21;0.20;;;0.20;;
11263;SDS011;5689;48.798;9.070;2023-08-07T10:20:49;0.20;;;0.20;;
11263;SDS011;5689;48.798;9.070;2023-08-07T10:23:19;0.15;;;0.15;;
11263;SDS011;5689;48.798;9.070;2023-08-07T10:25:48;0.10;;;0.10;;
11263;SDS011;5689;48.798;9.070;2023-08-07T10:28:18;0.10;;;0.10;;
11263;SDS011;5689;48.798;9.070;2023-08-07T10:30:47;0.10;;;0.10;;
11263;SDS011;5689;48.798;9.070;2023-08-07T10:33:16;0.20;;;0.20;;
11263;SDS011;5689;48.798;9.070;2023-08-07T10:35:47;0.15;;;0.15;;
11263;SDS011;5689;48.798;9.070;2023-08-07T10:38:17;0.10;;;0.10;;
11263;SDS011;5689;48.798;9.070;2023-08-07T10:40:59;0.10;;;0.10;;
11263;SDS011;5689;48.798;9.070;2023-08-07T10:43:28;0.10;;;0.10;;
11263;SDS011;5689;48.798;9.070;2023-08-07T10:46:02;0.10;;;0.10;;
11263;SDS011;5689;48.798;9.070;2023-08-07T10:48:37;0.10;;;0.10;;
11263;SDS011;5689;48.798;9.070;2023-08-07T10:51:06;0.20;;;0.20;;
11263;SDS011;5689;48.798;9.070;2023-08-07T10:53:36;0.10;;;0.10;;
11263;SDS011;5689;48.798;9.070;2023-08-07T10:56:07;0.10;;;0.10;;
11263;SDS011;5689;48.798;9.070;2023-08-07T10:58:37;0.20;;;0.20;;
11263;SDS011;5689;48.798;9.070;2023-08-07T11:01:16;0.20;;;0.20;;
11263;SDS011;5689;48.798;9.070;2023-08-07T11:03:48;0.10;;;0.10;;
11263;SDS011;5689;48.798;9.070;2023-08-07T11:06:23;0.20;;;0.20;;
11263;SDS011;5689;48.798;9.070;2023-08-07T11:08:54;0.10;;;0.10;;
11263;SDS011;5689;48.798;9.070;2023-08-07T11:11:23;0.10;;;0.10;;
11263;SDS011;5689;48.798;9.070;2023-08-07T11:13:51;0.10;;;0.10;;
11263;SDS011;5689;48.798;9.070;2023-08-07T11:16:20;0.20;;;0.20;;
11263;SDS011;5689;48.798;9.070;2023-08-07T11:18:49;0.20;;;0.20;;
11263;SDS011;5689;48.798;9.070;2023-08-07T11:21:17;0.10;;;0.10;;
11263;SDS011;5689;48.798;9.070;2023-08-07T11:23:46;0.20;;;0.20;;
11263;SDS011;5689;48.798;9.070;2023-08-07T11:26:15;0.10;;;0.10;;
11263;SDS011;5689;48.798;9.070;2023-08-07T11:28:43;0.20;;;0.20;;
11263;SDS011;5689;48.798;9.070;2023-08-07T11:31:11;0.10;;;0.10;;
11263;SDS011;5689;48.798;9.070;2023-08-07T11:33:40;0.20;;;0.20;;
11263;SDS011;5689;48.798;9.070;2023-08-07T11:36:11;0.13;;;0.13;;
11263;SDS011;5689;48.798;9.070;2023-08-07T11:38:39;0.10;;;0.10;;
11263;SDS011;5689;48.798;9.070;2023-08-07T11:41:10;0.20;;;0.20;;
11263;SDS011;5689;48.798;9.070;2023-08-07T11:43:40;0.10;;;0.10;;
11263;SDS011;5689;48.798;9.070;2023-08-07T11:46:11;0.10;;;0.10;;
11263;SDS011;5689;48.798;9.070;2023-08-07T11:48:40;0.10;;;0.10;;
11263;SDS011;5689;48.798;9.070;2023-08-07T11:51:09;0.20;;;0.20;;
11263;SDS011;5689;48.798;9.070;2023-08-07T11:53:38;0.20;;;0.20;;
11263;SDS011;5689;48.798;9.070;2023-08-07T11:56:08;0.20;;;0.20;;
11263;SDS011;5689;48.798;9.070;2023-08-07T11:58:37;0.10;;;0.10;;
11263;SDS011;5689;48.798;9.070;2023-08-07T12:01:09;0.20;;;0.20;;
11263;SDS011;5689;48.798;9.070;2023-08-07T12:03:38;0.10;;;0.10;;
11263;SDS011;5689;48.798;9.070;2023-08-07T12:06:08;0.17;;;0.17;;
11263;SDS011;5689;48.798;9.070;2023-08-07T12:08:37;0.20;;;0.20;;
11263;SDS011;5689;48.798;9.070;2023-08-07T12:11:07;0.10;;;0.10;;
11263;SDS011;5689;48.798;9.070;2023-08-07T12:13:36;0.10;;;0.10;;
11263;SDS011;5689;48.798;9.070;2023-08-07T12:16:05;0.20;;;0.20;;
11263;SDS011;5689;48.798;9.070;2023-08-07T12:18:36;0.10;;;0.10;;
11263;SDS011;5689;48.798;9.070;2023-08-07T12:21:06;0.10;;;0.10;;
11263;SDS011;5689;48.798;9.070;2023-08-07T12:23:35;0.10;;;0.10;;
11263;SDS011;5689;48.798;9.070;2023-08-07T12:26:03;0.10;;;0.10;;
11263;SDS011;5689;48.798;9.070;2023-08-07T12:28:33;0.10;;;0.10;;
11263;SDS011;5689;48.798;9.070;2023-08-07T12:31:02;0.20;;;0.20;;
11263;SDS011;5689;48.798;9.070;2023-08-07T12:33:30;0.10;;;0.10;;
11263;SDS011;5689;48.798;9.070;2023-08-07T12:36:00;0.10;;;0.10;;
11263;SDS011;5689;48.798;9.070;2023-08-07T12:38:28;0.10;;;0.10;;
11263;SDS011;5689;48.798;9.070;2023-08-07T12:40:57;0.10;;;0.10;;
11263;SDS011;5689;48.798;9.070;2023-08-07T12:43:25;0.10;;;0.10;;
11263;SDS011;5689;48.798;9.070;2023-08-07T12:45:53;0.10;;;0.10;;
11263;SDS011;5689;48.798;9.070;2023-08-07T12:48:41;0.20;;;0.20;;
11263;SDS011;5689;48.798;9.070;2023-08-07T12:51:11;0.10;;;0.10;;
11263;SDS011;5689;48.798;9.070;2023-08-07T12:53:39;0.10;;;0.10;;
11263;SDS011;5689;48.798;9.070;2023-08-07T12:56:07;0.10;;;0.10;;
11263;SDS011;5689;48.798;9.070;2023-08-07T12:58:34;0.20;;;0.20;;
11263;SDS011;5689;48.798;9.070;2023-08-07T13:01:03;0.10;;;0.10;;
11263;SDS011;5689;48.798;9.070;2023-08-07T13:03:31;0.13;;;0.13;;
11263;SDS011;5689;48.798;9.070;2023-08-07T13:05:59;0.10;;;0.10;;
11263;SDS011;5689;48.798;9.070;2023-08-07T13:08:32;0.10;;;0.10;;
11263;SDS011;5689;48.798;9.070;2023-08-07T13:11:01;0.10;;;0.10;;
11263;SDS011;5689;48.798;9.070;2023-08-07T13:13:29;0.10;;;0.10;;
11263;SDS011;5689;48.798;9.070;2023-08-07T13:15:57;0.00;;;0.00;;
11263;SDS011;5689;48.798;9.070;2023-08-07T13:18:25;0.10;;;0.10;;
11263;SDS011;5689;48.798;9.070;2023-08-07T13:20:53;0.00;;;0.00;;
11263;SDS011;5689;48.798;9.070;2023-08-07T13:23:21;0.10;;;0.10;;
11263;SDS011;5689;48.798;9.070;2023-08-07T13:25:50;0.05;;;0.05;;
11263;SDS011;5689;48.798;9.070;2023-08-07T13:28:18;0.03;;;0.03;;
11263;SDS011;5689;48.798;9.070;2023-08-07T13:30:46;0.03;;;0.03;;
11263;SDS011;5689;48.798;9.070;2023-08-07T13:33:14;0.10;;;0.10;;
11263;SDS011;5689;48.798;9.070;2023-08-07T13:35:42;0.10;;;0.10;;
11263;SDS011;5689;48.798;9.070;2023-08-07T13:38:10;0.10;;;0.10;;
11263;SDS011;5689;48.798;9.070;2023-08-07T13:40:39;0.00;;;0.00;;
11263;SDS011;5689;48.798;9.070;2023-08-07T13:43:08;0.10;;;0.10;;
11263;SDS011;5689;48.798;9.070;2023-08-07T13:45:36;0.10;;;0.10;;
11263;SDS011;5689;48.798;9.070;2023-08-07T13:48:05;0.00;;;0.00;;
11263;SDS011;5689;48.798;9.070;2023-08-07T13:50:35;0.05;;;0.05;;
11263;SDS011;5689;48.798;9.070;2023-08-07T13:53:04;0.00;;;0.00;;
11263;SDS011;5689;48.798;9.070;2023-08-07T13:55:38;0.00;;;0.00;;
11263;SDS011;5689;48.798;9.070;2023-08-07T13:58:06;0.00;;;0.00;;
11263;SDS011;5689;48.798;9.070;2023-08-07T14:00:36;0.10;;;0.10;;
11263;SDS011;5689;48.798;9.070;2023-08-07T14:03:06;0.05;;;0.05;;
11263;SDS011;5689;48.798;9.070;2023-08-07T14:05:35;0.13;;;0.13;;
11263;SDS011;5689;48.798;9.070;2023-08-07T14:08:04;0.10;;;0.10;;
11263;SDS011;5689;48.798;9.070;2023-08-07T14:10:32;0.10;;;0.10;;
11263;SDS011;5689;48.798;9.070;2023-08-07T14:13:02;0.10;;;0.10;;
11263;SDS011;5689;48.798;9.070;2023-08-07T14:15:32;0.10;;;0.10;;
11263;SDS011;5689;48.798;9.070;2023-08-07T14:18:00;0.10;;;0.10;;
11263;SDS011;5689;48.798;9.070;2023-08-07T14:20:28;0.10;;;0.10;;
11263;SDS011;5689;48.798;9.070;2023-08-07T14:22:56;0.20;;;0.20;;
11263;SDS011;5689;48.798;9.070;2023-08-07T14:25:31;0.10;;;0.10;;
11263;SDS011;5689;48.798;9.070;2023-08-07T14:27:59;0.10;;;0.10;;
11263;SDS011;5689;48.798;9.070;2023-08-07T14:30:27;0.20;;;0.20;;
11263;SDS011;5689;48.798;9.070;2023-08-07T14:32:58;0.10;;;0.10;;
11263;SDS011;5689;48.798;9.070;2023-08-07T14:35:26;0.10;;;0.10;;
11263;SDS011;5689;48.798;9.070;2023-08-07T14:37:54;0.10;;;0.10;;
11263;SDS011;5689;48.798;9.070;2023-08-07T14:40:22;0.10;;;0.10;;
11263;SDS011;5689;48.798;9.070;2023-08-07T14:42:50;0.10;;;0.10;;
11263;SDS011;5689;48.798;9.070;2023-08-07T14:45:18;0.10;;;0.10;;
11263;SDS011;5689;48.798;9.070;2023-08-07T14:47:47;0.10;;;0.10;;
11263;SDS011;5689;48.798;9.070;2023-08-07T14:50:16;0.10;;;0.10;;
11263;SDS011;5689;48.798;9.070;2023-08-07T14:52:44;0.00;;;0.00;;
11263;SDS011;5689;48.798;9.070;2023-08-07T14:55:12;0.10;;;0.10;;
11263;SDS011;5689;48.798;9.070;2023-08-07T14:57:40;0.10;;;0.10;;
11263;SDS011;5689;48.798;9.070;2023-08-07T15:00:11;0.03;;;0.03;;
11263;SDS011;5689;48.798;9.070;2023-08-07T15:02:40;0.10;;;0.10;;
11263;SDS011;5689;48.798;9.070;2023-08-07T15:05:08;0.10;;;0.10;;
11263;SDS011;5689;48.798;9.070;2023-08-07T15:07:37;0.10;;;0.10;;
11263;SDS011;5689;48.798;9.070;2023-08-07T15:10:07;0.10;;;0.10;;